Time;durP1;ratioP1;P1;durP2;ratioP2;P2;SDS_P1;SDS_P2;PMS_P1;PMS_P2;Temp;Humidity;BMP_temperature;BMP_pressure;BME280_temperature;BME280_humidity;BME280_pressure;Samples;Min_cycle;Max_cycle;Signal;HPM_P1;HPM_P2
2021/11/26 00:00:06;;;;;;;8.05;4.60;;;4.10;83.10;;;;;;5071896;28;20032;-70
2021/11/26 00:02:32;;;;;;;9.43;4.70;;;4.10;83.10;;;;;;5097364;28;20028;-73
2021/11/26 00:04:58;;;;;;;11.70;5.28;;;4.10;83.10;;;;;;5110636;28;20533;-74
2021/11/26 00:07:23;;;;;;;13.50;5.75;;;4.10;83.10;;;;;;5072101;28;20036;-70
2021/11/26 00:09:51;;;;;;;11.23;4.97;;;4.10;83.20;;;;;;5088844;28;20032;-70
2021/11/26 00:12:18;;;;;;;7.65;4.63;;;4.10;83.20;;;;;;5072065;28;20035;-70
2021/11/26 00:17:19;;;;;;;11.82;4.82;;;4.10;83.30;;;;;;5089030;28;20047;-73
2021/11/26 00:19:46;;;;;;;15.82;4.50;;;4.10;83.30;;;;;;5089953;28;20020;-70
2021/11/26 00:22:13;;;;;;;11.07;5.07;;;4.10;83.40;;;;;;5085570;28;20032;-70
2021/11/26 00:24:38;;;;;;;12.43;4.65;;;4.10;83.40;;;;;;5071289;28;20498;-70
2021/11/26 00:27:04;;;;;;;11.68;4.80;;;4.10;83.40;;;;;;5093189;28;20019;-70
2021/11/26 00:29:30;;;;;;;9.52;4.80;;;4.10;83.40;;;;;;5090216;28;20043;-70
2021/11/26 00:31:55;;;;;;;12.32;4.88;;;4.10;83.50;;;;;;5071410;28;20031;-69
2021/11/26 00:34:21;;;;;;;11.75;4.60;;;4.10;83.50;;;;;;5071895;28;20036;-70
2021/11/26 00:36:47;;;;;;;10.60;4.50;;;4.10;83.50;;;;;;5089178;28;20035;-73
2021/11/26 00:39:13;;;;;;;9.30;4.90;;;4.10;83.50;;;;;;5055089;28;20044;-70
2021/11/26 00:41:38;;;;;;;13.63;5.22;;;4.10;83.60;;;;;;5089113;28;20406;-70
2021/11/26 00:44:04;;;;;;;11.07;4.90;;;4.10;83.70;;;;;;5089139;28;20031;-70
2021/11/26 00:46:32;;;;;;;10.00;4.55;;;4.20;83.90;;;;;;5069760;28;20495;-72
2021/11/26 00:48:58;;;;;;;13.43;5.68;;;4.20;84.00;;;;;;5098383;28;20086;-70
2021/11/26 00:51:24;;;;;;;11.05;4.53;;;4.20;84.20;;;;;;5089000;28;20090;-70
2021/11/26 00:53:49;;;;;;;10.10;4.75;;;4.20;84.40;;;;;;5098705;28;20028;-70
2021/11/26 00:56:15;;;;;;;10.85;4.80;;;4.20;84.60;;;;;;5089264;28;20028;-70
2021/11/26 00:58:41;;;;;;;13.45;4.88;;;4.20;84.70;;;;;;5063572;28;20063;-70
2021/11/26 01:01:07;;;;;;;8.90;4.07;;;4.20;84.90;;;;;;5048855;28;20029;-70
2021/11/26 01:03:32;;;;;;;10.98;4.72;;;4.30;85.00;;;;;;5047540;28;20099;-70
2021/11/26 01:05:58;;;;;;;15.00;5.55;;;4.30;85.20;;;;;;5048503;28;20080;-70
2021/11/26 01:08:24;;;;;;;14.95;5.57;;;4.30;85.30;;;;;;5049261;28;20025;-70
2021/11/26 01:10:50;;;;;;;13.35;4.68;;;4.30;85.40;;;;;;5030587;28;20028;-70
2021/11/26 01:13:17;;;;;;;13.80;5.95;;;4.30;85.60;;;;;;5081403;28;20407;-74
2021/11/26 01:15:43;;;;;;;12.10;5.40;;;4.30;85.70;;;;;;5048762;28;20039;-74
2021/11/26 01:18:11;;;;;;;9.98;4.70;;;4.40;85.80;;;;;;5053857;28;20108;-73
2021/11/26 01:20:37;;;;;;;8.45;5.00;;;4.40;85.80;;;;;;5053428;28;20020;-73
2021/11/26 01:23:04;;;;;;;7.82;5.22;;;4.40;85.80;;;;;;5069558;28;20085;-72
2021/11/26 01:25:31;;;;;;;11.48;5.30;;;4.40;85.70;;;;;;5057298;28;20116;-70
2021/11/26 01:27:57;;;;;;;7.93;4.25;;;4.40;85.90;;;;;;5048836;28;20025;-73
2021/11/26 01:30:29;;;;;;;11.38;4.40;;;4.40;85.70;;;;;;5048620;28;20037;-73
2021/11/26 01:32:56;;;;;;;8.52;4.10;;;4.40;85.80;;;;;;5065845;28;20035;-73
2021/11/26 01:35:23;;;;;;;7.78;3.90;;;4.40;85.90;;;;;;5069760;28;20023;-70
2021/11/26 01:37:49;;;;;;;10.90;4.38;;;4.40;86.40;;;;;;5051246;28;20052;-71
2021/11/26 01:40:16;;;;;;;11.93;4.55;;;4.50;86.60;;;;;;5051099;28;20415;-70
2021/11/26 01:42:42;;;;;;;8.30;3.35;;;4.50;86.70;;;;;;5052910;28;20068;-70
2021/11/26 01:45:08;;;;;;;11.02;3.42;;;4.50;86.80;;;;;;5053059;28;20484;-70
2021/11/26 01:47:34;;;;;;;9.63;3.25;;;4.60;87.10;;;;;;5054184;28;20029;-71
2021/11/26 01:50:01;;;;;;;5.68;2.92;;;4.60;87.10;;;;;;5072710;28;20050;-70
2021/11/26 01:52:27;;;;;;;5.88;2.95;;;4.60;87.50;;;;;;5071109;28;20036;-71
2021/11/26 01:54:52;;;;;;;9.80;3.33;;;4.60;87.60;;;;;;5057971;28;20116;-71
2021/11/26 01:57:19;;;;;;;8.68;3.17;;;4.70;87.90;;;;;;5050784;28;20429;-70
2021/11/26 01:59:50;;;;;;;7.55;3.70;;;4.70;87.90;;;;;;5076612;28;20493;-71
2021/11/26 02:02:16;;;;;;;14.20;4.28;;;4.70;88.10;;;;;;5092186;28;20051;-71
2021/11/26 02:04:42;;;;;;;11.32;4.53;;;4.70;87.80;;;;;;5074274;28;20065;-71
2021/11/26 02:07:07;;;;;;;11.20;4.22;;;4.80;87.80;;;;;;5062972;28;20036;-71
2021/11/26 02:09:33;;;;;;;12.30;4.18;;;4.70;87.70;;;;;;5092362;28;20064;-71
2021/11/26 02:11:59;;;;;;;11.32;4.15;;;4.70;87.80;;;;;;5091395;28;21731;-71
2021/11/26 02:14:25;;;;;;;10.43;4.30;;;4.80;87.90;;;;;;5091999;28;20032;-71
2021/11/26 02:16:51;;;;;;;14.25;4.57;;;4.80;88.10;;;;;;5091834;28;20072;-71
2021/11/26 02:19:23;;;;;;;9.70;3.65;;;4.80;88.20;;;;;;5074060;28;20390;-71
2021/11/26 02:21:49;;;;;;;5.40;3.55;;;4.80;88.30;;;;;;5092031;28;20483;-71
2021/11/26 02:24:15;;;;;;;10.65;3.67;;;4.80;88.20;;;;;;5091859;28;20044;-71
2021/11/26 02:26:42;;;;;;;8.55;3.67;;;4.80;88.30;;;;;;5091033;28;20059;-71
2021/11/26 02:29:10;;;;;;;10.20;3.83;;;4.80;88.30;;;;;;5091465;28;20100;-71
2021/11/26 02:31:36;;;;;;;9.82;3.75;;;4.90;88.30;;;;;;5092012;28;20371;-71
2021/11/26 02:34:03;;;;;;;8.95;3.97;;;4.90;88.40;;;;;;5092202;28;20107;-71
2021/11/26 02:36:29;;;;;;;7.60;3.47;;;4.90;88.30;;;;;;5073099;28;20036;-71
2021/11/26 02:38:54;;;;;;;4.85;2.70;;;5.00;88.40;;;;;;5103595;28;20036;-71
2021/11/26 02:41:20;;;;;;;7.75;3.20;;;5.00;88.30;;;;;;5072473;28;20564;-70
2021/11/26 02:43:46;;;;;;;7.22;2.80;;;5.00;88.30;;;;;;5090902;28;20600;-72
2021/11/26 02:46:12;;;;;;;8.40;2.72;;;5.00;88.40;;;;;;5082249;28;20054;-72
2021/11/26 02:48:38;;;;;;;5.50;2.50;;;5.00;88.50;;;;;;5089028;28;20040;-72
2021/11/26 02:51:04;;;;;;;9.02;2.65;;;5.10;88.60;;;;;;5091625;28;20538;-71
2021/11/26 02:53:30;;;;;;;8.55;2.97;;;5.10;88.70;;;;;;5091611;28;20031;-71
2021/11/26 02:55:56;;;;;;;7.20;2.72;;;5.10;88.80;;;;;;5072502;28;20074;-71
2021/11/26 02:58:22;;;;;;;9.00;2.78;;;5.10;88.70;;;;;;5090843;28;20035;-72
2021/11/26 03:00:51;;;;;;;11.10;3.55;;;5.20;88.80;;;;;;5091314;28;20040;-73
2021/11/26 03:03:17;;;;;;;6.88;2.90;;;5.20;88.90;;;;;;5091332;28;20267;-74
2021/11/26 03:05:43;;;;;;;8.60;3.20;;;5.20;89.10;;;;;;5104688;28;20401;-73
2021/11/26 03:08:09;;;;;;;7.38;3.60;;;5.20;89.10;;;;;;5111838;28;20027;-73
2021/11/26 03:10:38;;;;;;;8.23;3.85;;;5.20;89.40;;;;;;5075347;28;20067;-73
2021/11/26 03:13:07;;;;;;;10.70;3.30;;;5.20;89.60;;;;;;5090887;28;20062;-73
2021/11/26 03:15:36;;;;;;;5.22;3.47;;;5.20;89.60;;;;;;5090489;28;20115;-73
2021/11/26 03:18:02;;;;;;;7.35;3.50;;;5.20;89.50;;;;;;5091295;28;20101;-73
2021/11/26 03:20:28;;;;;;;7.25;3.28;;;5.20;89.60;;;;;;5072923;28;20028;-73
2021/11/26 03:22:55;;;;;;;5.13;3.50;;;5.20;89.60;;;;;;5091111;28;20089;-73
2021/11/26 03:25:21;;;;;;;4.72;3.28;;;5.20;89.70;;;;;;5090720;28;20478;-73
2021/11/26 03:27:47;;;;;;;6.32;3.90;;;5.20;89.70;;;;;;5090983;28;20086;-72
2021/11/26 03:30:16;;;;;;;8.68;3.75;;;5.20;89.90;;;;;;5090642;28;20053;-72
2021/11/26 03:32:42;;;;;;;9.88;4.20;;;5.20;89.90;;;;;;5090991;28;20036;-71
2021/11/26 03:35:09;;;;;;;7.72;4.13;;;5.20;89.80;;;;;;5090805;28;20020;-71
2021/11/26 03:37:34;;;;;;;7.68;5.07;;;5.20;89.80;;;;;;5090277;28;20032;-71
2021/11/26 03:40:01;;;;;;;7.70;5.30;;;5.20;89.90;;;;;;5090287;28;20035;-71
2021/11/26 03:42:27;;;;;;;11.50;5.32;;;5.20;89.90;;;;;;5089170;28;20050;-71
2021/11/26 03:44:52;;;;;;;9.70;6.07;;;5.20;89.90;;;;;;5089860;28;20032;-70
2021/11/26 03:47:18;;;;;;;8.98;5.75;;;5.20;89.90;;;;;;5089769;28;20104;-70
2021/11/26 03:49:44;;;;;;;11.35;6.15;;;5.20;89.90;;;;;;5090350;28;20035;-71
2021/11/26 03:52:10;;;;;;;11.13;6.10;;;5.20;89.90;;;;;;5090365;28;20024;-72
2021/11/26 03:54:36;;;;;;;10.73;5.93;;;5.20;89.90;;;;;;5072236;28;20039;-73
2021/11/26 03:57:02;;;;;;;10.05;6.47;;;5.20;89.90;;;;;;5072056;28;20168;-73
2021/11/26 03:59:27;;;;;;;11.73;5.82;;;5.30;89.90;;;;;;5090353;28;20550;-70
2021/11/26 04:01:53;;;;;;;8.35;5.97;;;5.20;89.90;;;;;;5072101;28;20493;-70
2021/11/26 04:04:19;;;;;;;12.23;6.95;;;5.20;89.90;;;;;;5072199;28;20111;-71
2021/11/26 04:06:44;;;;;;;11.65;6.45;;;5.20;90.00;;;;;;5089706;28;20082;-70
2021/11/26 04:09:10;;;;;;;12.13;5.90;;;5.20;90.00;;;;;;5090293;28;20028;-71
2021/11/26 04:11:36;;;;;;;12.35;7.07;;;5.20;90.00;;;;;;5089676;28;20028;-71
2021/11/26 04:14:02;;;;;;;9.65;6.22;;;5.30;90.00;;;;;;5089800;28;20035;-70
2021/11/26 04:16:27;;;;;;;12.52;7.65;;;5.20;90.00;;;;;;5071018;28;20036;-70
2021/11/26 04:18:53;;;;;;;12.85;7.28;;;5.30;90.00;;;;;;5071282;28;20032;-71
2021/11/26 04:21:19;;;;;;;7.57;5.82;;;5.30;90.10;;;;;;5054479;28;20036;-70
2021/11/26 04:23:44;;;;;;;12.98;6.72;;;5.30;90.10;;;;;;5089621;28;20032;-70
2021/11/26 04:26:11;;;;;;;11.93;7.07;;;5.30;90.10;;;;;;5088288;28;20156;-71
2021/11/26 04:28:36;;;;;;;8.93;6.00;;;5.30;90.20;;;;;;5088661;28;20488;-70
2021/11/26 04:31:03;;;;;;;10.90;6.32;;;5.30;90.20;;;;;;5089042;28;20036;-71
2021/11/26 04:33:29;;;;;;;9.43;5.85;;;5.30;90.20;;;;;;5089211;28;20406;-70
2021/11/26 04:35:55;;;;;;;7.85;5.78;;;5.30;90.20;;;;;;5088551;28;20128;-70
2021/11/26 04:38:21;;;;;;;9.32;6.22;;;5.30;90.20;;;;;;5088325;28;20028;-70
2021/11/26 04:40:47;;;;;;;7.90;5.13;;;5.30;90.20;;;;;;5087714;28;20555;-70
2021/11/26 04:43:14;;;;;;;6.35;4.93;;;5.30;90.10;;;;;;5071710;28;20103;-70
2021/11/26 04:45:40;;;;;;;7.72;4.82;;;5.30;90.10;;;;;;5070418;28;20485;-70
2021/11/26 04:48:06;;;;;;;8.85;5.05;;;5.30;90.10;;;;;;5090055;28;20103;-70
2021/11/26 04:50:32;;;;;;;11.00;4.45;;;5.40;90.10;;;;;;5088715;28;20028;-70
2021/11/26 04:52:58;;;;;;;7.75;4.22;;;5.40;90.10;;;;;;5087935;28;20056;-70
2021/11/26 04:55:24;;;;;;;8.38;3.92;;;5.40;90.10;;;;;;5085006;28;20058;-70
2021/11/26 04:57:50;;;;;;;6.93;3.53;;;5.40;90.10;;;;;;5088222;28;20534;-71
2021/11/26 05:00:18;;;;;;;5.75;3.42;;;5.40;90.10;;;;;;5088695;28;20040;-70
2021/11/26 05:02:45;;;;;;;5.30;2.80;;;5.40;90.10;;;;;;5073781;28;20070;-70
2021/11/26 05:05:11;;;;;;;6.47;2.92;;;5.40;90.10;;;;;;5088498;28;20032;-70
2021/11/26 05:07:37;;;;;;;7.10;2.70;;;5.40;90.10;;;;;;5090141;28;20039;-71
2021/11/26 05:10:07;;;;;;;3.80;2.00;;;5.40;90.00;;;;;;5074553;28;20043;-72
2021/11/26 05:12:38;;;;;;;6.68;1.98;;;5.40;90.00;;;;;;5093601;28;20561;-72
2021/11/26 05:15:05;;;;;;;3.88;1.85;;;5.40;90.00;;;;;;5082868;28;20028;-72
2021/11/26 05:17:31;;;;;;;6.28;2.08;;;5.40;90.00;;;;;;5075048;28;20370;-72
2021/11/26 05:19:58;;;;;;;5.70;1.80;;;5.40;90.00;;;;;;5093206;28;20036;-72
2021/11/26 05:22:24;;;;;;;5.07;1.60;;;5.40;89.90;;;;;;5093183;28;20036;-72
2021/11/26 05:24:49;;;;;;;4.15;1.60;;;5.40;89.90;;;;;;5092738;28;20052;-71
2021/11/26 05:27:15;;;;;;;7.80;1.60;;;5.40;89.80;;;;;;5074647;28;20124;-71
2021/11/26 05:29:41;;;;;;;4.68;1.33;;;5.40;89.80;;;;;;5093331;28;20036;-70
2021/11/26 05:32:07;;;;;;;4.50;1.60;;;5.40;89.80;;;;;;5091284;28;20043;-70
2021/11/26 05:34:32;;;;;;;4.22;1.52;;;5.40;89.70;;;;;;5074023;28;20036;-70
2021/11/26 05:36:58;;;;;;;5.65;2.13;;;5.40;89.70;;;;;;5092938;28;20032;-70
2021/11/26 05:39:24;;;;;;;5.97;1.70;;;5.40;89.70;;;;;;5074819;28;20032;-71
2021/11/26 05:41:49;;;;;;;5.10;2.03;;;5.40;89.70;;;;;;5092892;28;20483;-71
2021/11/26 05:44:15;;;;;;;4.10;1.98;;;5.40;89.70;;;;;;5058010;28;20148;-71
2021/11/26 05:46:40;;;;;;;4.47;1.50;;;5.40;90.10;;;;;;5074345;28;20368;-71
2021/11/26 05:49:06;;;;;;;5.75;1.45;;;5.40;89.60;;;;;;5092747;28;20036;-71
2021/11/26 05:51:32;;;;;;;4.35;1.42;;;5.40;89.60;;;;;;5092907;28;20482;-71
2021/11/26 05:53:58;;;;;;;3.78;1.65;;;5.40;89.60;;;;;;5092796;28;20437;-71
2021/11/26 05:56:23;;;;;;;8.32;1.73;;;5.40;89.60;;;;;;5073329;28;20028;-70
2021/11/26 05:58:49;;;;;;;4.90;1.80;;;5.40;89.50;;;;;;5092642;28;20141;-71
2021/11/26 06:01:15;;;;;;;4.60;1.75;;;5.30;89.50;;;;;;5057366;28;20100;-70
2021/11/26 06:03:41;;;;;;;5.10;1.58;;;5.30;89.50;;;;;;5074092;28;20040;-70
2021/11/26 06:06:06;;;;;;;5.18;1.50;;;5.30;89.50;;;;;;5092047;28;20224;-71
2021/11/26 06:08:32;;;;;;;4.75;1.70;;;5.30;89.40;;;;;;5092464;28;20036;-71
2021/11/26 06:10:58;;;;;;;5.18;1.70;;;5.30;89.40;;;;;;5074101;28;20028;-70
2021/11/26 06:13:23;;;;;;;6.57;2.03;;;5.30;89.40;;;;;;5092333;28;20519;-71
2021/11/26 06:15:49;;;;;;;2.95;1.42;;;5.30;89.40;;;;;;5074099;28;20036;-71
2021/11/26 06:18:15;;;;;;;4.75;1.85;;;5.30;89.40;;;;;;5056415;28;20024;-71
2021/11/26 06:20:40;;;;;;;5.90;1.92;;;5.40;89.40;;;;;;5073846;28;20348;-71
2021/11/26 06:23:06;;;;;;;2.90;1.50;;;5.40;89.30;;;;;;5092176;28;20496;-73
2021/11/26 06:25:32;;;;;;;5.65;2.20;;;5.30;89.20;;;;;;5084663;28;20434;-71
2021/11/26 06:27:58;;;;;;;5.15;2.20;;;5.30;89.20;;;;;;5092040;28;20051;-73
2021/11/26 06:30:24;;;;;;;7.30;2.33;;;5.30;89.30;;;;;;5062448;28;20028;-73
2021/11/26 06:32:51;;;;;;;8.23;2.50;;;5.30;89.30;;;;;;5091956;28;20394;-73
2021/11/26 06:35:21;;;;;;;6.25;2.28;;;5.30;89.40;;;;;;5091403;28;20383;-73
2021/11/26 06:37:48;;;;;;;5.38;2.35;;;5.40;89.40;;;;;;5091942;28;20025;-73
2021/11/26 06:40:15;;;;;;;5.78;2.67;;;5.40;89.30;;;;;;5091178;28;20459;-73
2021/11/26 06:42:41;;;;;;;6.15;3.05;;;5.40;89.20;;;;;;5091954;28;20047;-73
2021/11/26 06:45:08;;;;;;;5.13;3.17;;;5.40;89.20;;;;;;5091343;28;20376;-73
2021/11/26 06:47:34;;;;;;;5.97;3.20;;;5.40;89.20;;;;;;5091691;28;20028;-73
2021/11/26 06:50:01;;;;;;;8.10;3.22;;;5.40;89.30;;;;;;5091872;28;20054;-73
2021/11/26 06:52:27;;;;;;;8.07;3.30;;;5.40;89.30;;;;;;5091849;28;20024;-73
2021/11/26 06:54:52;;;;;;;10.85;3.38;;;5.40;89.40;;;;;;5073065;28;20391;-73
2021/11/26 06:57:18;;;;;;;8.05;3.75;;;5.40;89.40;;;;;;5091350;28;20453;-73
2021/11/26 06:59:44;;;;;;;7.35;3.30;;;5.50;89.50;;;;;;5091316;28;20032;-73
2021/11/26 07:02:10;;;;;;;6.95;3.60;;;5.50;89.50;;;;;;5072792;28;20036;-71
2021/11/26 07:04:37;;;;;;;9.38;3.90;;;5.50;89.50;;;;;;5088884;28;20028;-71
2021/11/26 07:07:03;;;;;;;10.27;3.78;;;5.50;89.50;;;;;;5089557;28;20398;-72
2021/11/26 07:09:29;;;;;;;10.77;3.33;;;5.50;89.50;;;;;;5091114;28;20032;-73
2021/11/26 07:11:54;;;;;;;10.88;3.78;;;5.50;89.50;;;;;;5091051;28;20044;-72
2021/11/26 07:14:20;;;;;;;9.07;3.67;;;5.50;89.50;;;;;;5091333;28;20020;-73
2021/11/26 07:16:46;;;;;;;11.65;3.70;;;5.50;89.50;;;;;;5091173;28;20032;-73
2021/11/26 07:19:12;;;;;;;12.20;4.07;;;5.50;89.50;;;;;;5089522;28;20042;-72
2021/11/26 07:21:37;;;;;;;11.60;3.40;;;5.50;89.50;;;;;;5090442;28;20024;-72
2021/11/26 07:24:03;;;;;;;10.63;3.88;;;5.50;89.50;;;;;;5073392;28;20040;-73
2021/11/26 07:26:29;;;;;;;9.35;3.65;;;5.50;89.60;;;;;;5090111;28;20110;-73
2021/11/26 07:28:55;;;;;;;11.18;3.97;;;5.50;89.50;;;;;;5072854;28;20086;-73
2021/11/26 07:31:20;;;;;;;8.27;3.45;;;5.50;89.40;;;;;;5090204;28;20113;-71
2021/11/26 07:33:46;;;;;;;8.85;3.80;;;5.50;89.30;;;;;;5072906;28;20077;-71
2021/11/26 07:36:12;;;;;;;12.68;3.95;;;5.50;89.30;;;;;;5072467;28;20111;-71
2021/11/26 07:38:39;;;;;;;9.63;4.47;;;5.50;89.30;;;;;;5090999;28;20028;-71
2021/11/26 07:41:05;;;;;;;11.32;4.03;;;5.50;89.30;;;;;;5090543;28;20602;-71
2021/11/26 07:43:31;;;;;;;12.88;4.25;;;5.50;89.20;;;;;;5091010;28;20024;-73
2021/11/26 07:45:58;;;;;;;10.25;4.20;;;5.50;89.30;;;;;;5090350;28;20031;-72
2021/11/26 07:48:24;;;;;;;13.07;4.88;;;5.50;89.30;;;;;;5090924;28;20385;-71
2021/11/26 07:50:51;;;;;;;11.48;4.50;;;5.50;89.00;;;;;;5089273;28;20050;-71
2021/11/26 07:53:16;;;;;;;16.55;5.55;;;5.50;89.00;;;;;;5089826;28;20066;-71
2021/11/26 07:55:42;;;;;;;14.45;5.30;;;5.50;89.00;;;;;;5088803;28;20024;-70
2021/11/26 07:58:09;;;;;;;14.32;5.18;;;5.50;88.90;;;;;;5090377;28;20032;-70
2021/11/26 08:00:35;;;;;;;12.48;5.40;;;5.40;88.90;;;;;;5071515;28;20036;-70
2021/11/26 08:03:01;;;;;;;19.05;6.43;;;5.50;88.90;;;;;;5088936;28;20086;-70
2021/11/26 08:05:31;;;;;;;18.23;6.43;;;5.50;88.80;;;;;;5087756;28;20028;-70
2021/11/26 08:07:57;;;;;;;18.75;6.32;;;5.50;88.70;;;;;;5090518;28;20028;-72
2021/11/26 08:10:23;;;;;;;12.95;6.13;;;5.50;88.60;;;;;;5038872;28;20174;-72
2021/11/26 08:12:49;;;;;;;13.63;6.10;;;5.50;88.70;;;;;;5089980;28;20140;-72
2021/11/26 08:15:17;;;;;;;17.92;6.57;;;5.40;88.50;;;;;;5089112;28;20150;-72
2021/11/26 08:17:43;;;;;;;14.82;6.25;;;5.50;88.40;;;;;;5088639;28;20034;-72
2021/11/26 08:20:10;;;;;;;17.80;6.30;;;5.50;88.20;;;;;;5087196;28;20028;-70
2021/11/26 08:22:35;;;;;;;16.58;6.28;;;5.50;88.10;;;;;;5087530;28;20368;-70
2021/11/26 08:25:01;;;;;;;16.27;6.20;;;5.50;88.20;;;;;;5089287;28;20039;-70
2021/11/26 08:27:29;;;;;;;16.77;6.45;;;5.50;88.10;;;;;;5071771;28;20047;-70
2021/11/26 08:29:55;;;;;;;16.30;6.00;;;5.50;88.10;;;;;;5085170;28;20056;-70
2021/11/26 08:32:21;;;;;;;14.32;6.00;;;5.50;88.60;;;;;;5069303;28;20199;-70
2021/11/26 08:34:47;;;;;;;20.35;6.00;;;5.60;88.00;;;;;;5087132;28;20059;-69
2021/11/26 08:37:12;;;;;;;15.65;5.78;;;5.60;87.20;;;;;;5098183;28;20500;-69
2021/11/26 08:39:38;;;;;;;21.95;7.40;;;5.60;87.20;;;;;;5089685;28;20031;-69
2021/11/26 08:42:04;;;;;;;21.10;5.78;;;5.60;87.10;;;;;;5073904;28;20547;-69
2021/11/26 08:44:29;;;;;;;17.45;6.63;;;5.60;87.00;;;;;;5073208;28;20035;-69
2021/11/26 08:46:55;;;;;;;16.60;6.13;;;5.60;86.80;;;;;;5074762;28;20118;-69
2021/11/26 08:49:21;;;;;;;16.23;6.10;;;5.60;86.70;;;;;;5093914;28;20036;-69
2021/11/26 08:51:48;;;;;;;23.30;6.55;;;5.60;87.10;;;;;;5093890;28;20032;-71
2021/11/26 08:54:13;;;;;;;16.25;5.75;;;5.60;86.30;;;;;;5094041;28;20024;-71
2021/11/26 08:56:41;;;;;;;19.33;6.82;;;5.60;86.30;;;;;;5092475;28;20111;-71
2021/11/26 08:59:07;;;;;;;25.02;6.38;;;5.60;86.30;;;;;;5075627;28;20089;-71
2021/11/26 09:01:34;;;;;;;15.68;5.38;;;5.60;86.10;;;;;;5093752;28;20488;-72
2021/11/26 09:04:00;;;;;;;15.90;5.70;;;5.60;86.40;;;;;;5075223;28;20071;-72
2021/11/26 09:06:26;;;;;;;17.42;5.45;;;5.50;86.20;;;;;;5075028;28;20089;-72
2021/11/26 09:08:52;;;;;;;16.95;6.28;;;5.60;86.10;;;;;;5073534;28;20074;-69
2021/11/26 09:11:19;;;;;;;16.98;6.10;;;5.60;85.90;;;;;;5090957;28;20500;-69
2021/11/26 09:13:45;;;;;;;20.23;6.65;;;5.60;85.90;;;;;;5092691;28;20377;-69
2021/11/26 09:16:11;;;;;;;18.20;6.57;;;5.60;85.90;;;;;;5092572;28;20788;-69
2021/11/26 09:18:38;;;;;;;22.35;5.88;;;5.60;85.70;;;;;;5074531;28;20070;-70
2021/11/26 09:21:04;;;;;;;17.27;6.20;;;5.60;85.70;;;;;;5092784;28;20036;-68
2021/11/26 09:23:30;;;;;;;21.40;7.18;;;5.60;85.70;;;;;;5092509;28;20103;-69
2021/11/26 09:25:55;;;;;;;21.00;6.10;;;5.70;85.40;;;;;;5073834;28;20038;-69
2021/11/26 09:28:22;;;;;;;21.60;6.30;;;5.60;85.00;;;;;;5091909;28;20032;-69
2021/11/26 09:30:49;;;;;;;27.90;6.97;;;5.60;85.10;;;;;;5074533;28;20028;-69
2021/11/26 09:33:17;;;;;;;21.10;7.28;;;5.60;84.90;;;;;;5072827;28;20032;-69
2021/11/26 09:35:43;;;;;;;21.27;6.68;;;5.60;84.60;;;;;;5091675;28;20028;-68
2021/11/26 09:38:09;;;;;;;26.08;7.35;;;5.60;84.60;;;;;;5073935;28;20069;-68
2021/11/26 09:40:35;;;;;;;21.45;7.15;;;5.60;84.90;;;;;;5087287;28;20020;-69
2021/11/26 09:43:01;;;;;;;22.80;7.10;;;5.60;84.70;;;;;;5084338;28;20036;-69
2021/11/26 09:45:28;;;;;;;20.02;6.00;;;5.70;84.70;;;;;;5082254;28;20097;-69
2021/11/26 09:47:55;;;;;;;19.63;7.10;;;5.70;84.60;;;;;;5090142;28;20035;-69
2021/11/26 09:50:23;;;;;;;19.35;6.22;;;5.70;84.20;;;;;;5094165;28;20035;-69
2021/11/26 09:52:49;;;;;;;19.42;6.47;;;5.70;84.00;;;;;;5094150;28;20451;-69
2021/11/26 09:55:17;;;;;;;16.50;5.78;;;5.70;84.00;;;;;;5090642;28;20032;-69
2021/11/26 09:57:46;;;;;;;21.83;6.70;;;5.70;84.00;;;;;;5091425;28;20027;-68
2021/11/26 10:00:15;;;;;;;17.02;5.78;;;5.70;82.80;;;;;;5090796;28;20021;-68
2021/11/26 10:02:56;;;;;;;17.55;6.35;;;5.70;82.60;;;;;;5073495;28;20048;-69
2021/11/26 10:05:23;;;;;;;16.20;5.60;;;5.70;82.10;;;;;;5079365;28;20059;-69
2021/11/26 10:07:51;;;;;;;13.10;4.88;;;5.70;82.60;;;;;;5074026;28;20070;-69
2021/11/26 10:10:36;;;;;;;17.00;5.85;;;5.70;82.60;;;;;;5068197;28;20032;-69
2021/11/26 10:13:05;;;;;;;11.27;4.50;;;5.80;82.50;;;;;;5089745;28;20521;-69
2021/11/26 10:15:46;;;;;;;15.57;5.10;;;6.00;82.80;;;;;;5089866;28;20107;-69
2021/11/26 10:18:20;;;;;;;11.77;4.45;;;6.50;81.70;;;;;;5089952;28;20020;-69
2021/11/26 10:21:03;;;;;;;13.88;5.07;;;7.00;79.80;;;;;;5089590;28;20082;-69
2021/11/26 10:23:57;;;;;;;16.42;4.65;;;7.50;78.60;;;;;;5065752;28;20518;-69
2021/11/26 10:26:29;;;;;;;17.15;4.40;;;8.00;76.70;;;;;;5072737;28;20074;-69
2021/11/26 10:29:02;;;;;;;10.50;3.80;;;8.70;73.80;;;;;;5088299;28;20043;-72
2021/11/26 10:31:39;;;;;;;11.50;4.15;;;9.20;72.10;;;;;;5090785;28;20622;-72
2021/11/26 10:34:07;;;;;;;16.83;4.10;;;10.10;70.60;;;;;;5082339;28;20031;-69
2021/11/26 10:36:45;;;;;;;9.65;3.50;;;10.80;66.90;;;;;;5089177;28;20036;-69
2021/11/26 10:39:17;;;;;;;13.25;3.58;;;10.90;64.90;;;;;;5092405;28;20504;-69
2021/11/26 10:41:49;;;;;;;12.50;3.47;;;11.00;65.10;;;;;;5086426;28;20209;-69
2021/11/26 10:44:18;;;;;;;10.75;3.45;;;11.20;62.50;;;;;;5093700;28;20042;-69
2021/11/26 10:46:59;;;;;;;9.93;3.40;;;10.90;62.70;;;;;;5089932;28;20545;-69
2021/11/26 10:49:50;;;;;;;10.13;3.67;;;10.30;65.00;;;;;;5090954;28;20032;-69
2021/11/26 11:00:17;;;;;;;10.65;4.43;;;8.10;69.60;;;;;;5093014;28;20028;-69
2021/11/26 11:02:48;;;;;;;10.07;3.85;;;7.80;71.10;;;;;;5071587;28;20119;-69
2021/11/26 11:05:25;;;;;;;10.40;3.33;;;7.60;72.20;;;;;;5088953;28;20071;-69
2021/11/26 11:07:52;;;;;;;13.13;3.83;;;7.40;72.60;;;;;;5071994;28;20028;-69
2021/11/26 11:10:41;;;;;;;13.55;4.65;;;7.20;72.50;;;;;;5089077;28;20043;-72
2021/11/26 11:13:16;;;;;;;11.55;3.70;;;7.10;73.20;;;;;;5065826;28;20040;-72
2021/11/26 11:15:44;;;;;;;10.23;3.65;;;7.00;73.80;;;;;;5089316;28;20059;-72
2021/11/26 11:18:12;;;;;;;12.07;4.15;;;6.90;74.20;;;;;;5088650;28;20459;-72
2021/11/26 11:20:39;;;;;;;9.07;4.05;;;6.90;74.40;;;;;;5096336;28;20035;-72
2021/11/26 11:23:06;;;;;;;9.38;3.72;;;6.80;74.70;;;;;;5087749;28;20081;-72
2021/11/26 11:25:33;;;;;;;10.15;4.00;;;6.80;74.60;;;;;;5070957;28;20065;-72
2021/11/26 11:28:05;;;;;;;14.02;4.20;;;6.80;74.70;;;;;;5089369;28;20036;-71
2021/11/26 11:30:31;;;;;;;12.25;3.92;;;6.70;74.80;;;;;;5086503;28;20462;-69
2021/11/26 11:32:57;;;;;;;11.55;3.88;;;6.70;74.90;;;;;;5088193;28;20035;-69
2021/11/26 11:35:27;;;;;;;12.75;4.35;;;6.60;75.30;;;;;;5087628;28;20048;-69
2021/11/26 11:37:55;;;;;;;11.70;3.50;;;6.60;75.70;;;;;;5086494;28;20023;-69
2021/11/26 11:40:30;;;;;;;13.18;4.15;;;6.70;75.80;;;;;;5090827;28;20030;-68
2021/11/26 11:43:16;;;;;;;8.70;3.97;;;6.70;75.70;;;;;;5094371;28;20081;-72
2021/11/26 11:45:54;;;;;;;11.48;4.10;;;6.70;75.40;;;;;;5072436;28;20106;-72
2021/11/26 11:48:34;;;;;;;14.77;4.05;;;6.60;75.50;;;;;;5096872;28;20039;-69
2021/11/26 11:51:00;;;;;;;13.45;3.60;;;6.60;75.50;;;;;;5088478;28;20043;-69
2021/11/26 11:53:33;;;;;;;10.68;3.90;;;6.70;75.80;;;;;;5070051;28;20051;-69
2021/11/26 11:56:04;;;;;;;15.30;4.40;;;6.60;75.70;;;;;;5086613;28;20052;-69
2021/11/26 11:58:37;;;;;;;19.13;4.50;;;6.60;75.60;;;;;;5085779;28;20039;-69
2021/11/26 12:01:03;;;;;;;13.88;4.07;;;6.60;75.70;;;;;;5088782;28;20473;-68
2021/11/26 12:03:36;;;;;;;11.43;4.05;;;6.70;76.00;;;;;;5086124;28;20062;-69
2021/11/26 12:06:06;;;;;;;13.15;3.85;;;6.70;76.10;;;;;;5069015;28;20051;-69
2021/11/26 12:08:47;;;;;;;13.63;4.88;;;6.70;75.50;;;;;;5065268;28;20111;-70
2021/11/26 12:11:31;;;;;;;14.70;4.68;;;6.70;75.80;;;;;;5084264;28;20050;-69
2021/11/26 12:14:09;;;;;;;17.33;4.50;;;6.70;75.50;;;;;;5086783;28;20031;-70
2021/11/26 12:16:50;;;;;;;14.43;4.15;;;6.70;75.60;;;;;;5084845;28;20028;-69
2021/11/26 12:19:20;;;;;;;13.18;3.80;;;6.60;75.80;;;;;;5090685;28;20060;-69
2021/11/26 12:21:48;;;;;;;10.35;3.92;;;6.60;76.20;;;;;;5083616;28;20032;-69
2021/11/26 12:27:02;;;;;;;9.88;3.55;;;6.50;76.70;;;;;;5086091;28;20123;-69
2021/11/26 12:29:54;;;;;;;11.38;3.97;;;6.50;77.20;;;;;;5088884;28;20093;-69
2021/11/26 12:32:31;;;;;;;10.35;4.20;;;6.40;77.40;;;;;;5075799;28;20048;-69
2021/11/26 12:35:03;;;;;;;12.77;4.03;;;6.40;77.70;;;;;;5087907;28;20077;-69
2021/11/26 12:37:31;;;;;;;7.85;3.65;;;6.40;78.30;;;;;;5083658;28;20557;-69
2021/11/26 12:39:59;;;;;;;9.45;4.65;;;6.40;78.70;;;;;;5085527;28;20042;-70
2021/11/26 12:42:26;;;;;;;12.25;4.63;;;6.40;78.60;;;;;;5071813;28;20032;-71
2021/11/26 12:45:07;;;;;;;11.43;4.35;;;6.30;79.10;;;;;;5097574;28;20030;-71
2021/11/26 12:47:44;;;;;;;11.25;5.00;;;6.30;79.40;;;;;;5096783;28;20608;-71
2021/11/26 12:53:10;;;;;;;13.30;5.00;;;6.20;80.20;;;;;;5086846;28;20169;-70
2021/11/26 12:55:37;;;;;;;14.05;5.50;;;6.20;80.50;;;;;;5092580;28;20032;-70
2021/11/26 12:58:04;;;;;;;7.70;4.82;;;6.10;80.80;;;;;;5101853;28;20047;-71
2021/11/26 13:00:32;;;;;;;10.85;4.75;;;6.10;81.20;;;;;;5088264;28;20055;-71
2021/11/26 13:03:10;;;;;;;10.50;4.43;;;6.00;81.40;;;;;;5088210;28;20508;-69
2021/11/26 13:05:36;;;;;;;10.70;4.60;;;6.00;81.80;;;;;;5095915;28;20063;-69
2021/11/26 13:08:03;;;;;;;8.15;4.60;;;6.00;81.80;;;;;;5084566;28;20029;-69